Time;durP1;ratioP1;P1;durP2;ratioP2;P2;SDS_P1;SDS_P2;PMS_P1;PMS_P2;Temp;Humidity;BMP_temperature;BMP_pressure;BME280_temperature;BME280_humidity;BME280_pressure;Samples;Min_cycle;Max_cycle;Signal;HPM_P1;HPM_P2
2023/05/10 00:01:24;;;;;;;4.07;1.30;;;12.90;99.90;;;;;;5072795;28;20230;-76
2023/05/10 00:03:52;;;;;;;2.30;1.10;;;12.80;99.90;;;;;;5072370;28;20294;-78
2023/05/10 00:06:21;;;;;;;1.50;1.40;;;12.80;99.90;;;;;;5073635;28;20211;-77
2023/05/10 00:08:49;;;;;;;1.27;1.17;;;12.80;99.90;;;;;;5073145;28;20250;-78
2023/05/10 00:11:17;;;;;;;1.40;1.30;;;12.80;99.90;;;;;;5072595;28;20204;-79
2023/05/10 00:13:48;;;;;;;1.90;1.30;;;12.80;99.90;;;;;;5082362;28;20301;-78
2023/05/10 00:16:16;;;;;;;1.53;1.43;;;12.80;99.90;;;;;;5092967;28;20283;-79
2023/05/10 00:18:44;;;;;;;1.73;1.50;;;12.80;99.90;;;;;;5092370;28;20202;-77
2023/05/10 00:21:12;;;;;;;2.83;1.70;;;12.70;99.90;;;;;;5076921;28;20322;-76
2023/05/10 00:23:40;;;;;;;2.50;1.60;;;12.70;99.90;;;;;;5072413;28;20226;-77
2023/05/10 00:26:08;;;;;;;2.10;1.90;;;12.70;99.90;;;;;;5072468;28;20207;-79
2023/05/10 00:28:36;;;;;;;2.90;1.87;;;12.70;99.90;;;;;;5072676;28;20290;-78
2023/05/10 00:31:06;;;;;;;3.70;2.10;;;12.70;99.90;;;;;;5072547;28;20230;-79
2023/05/10 00:33:34;;;;;;;2.60;2.03;;;12.70;99.90;;;;;;5073351;28;20214;-77
2023/05/10 00:36:02;;;;;;;2.10;1.90;;;12.70;99.90;;;;;;5076522;28;20215;-81
2023/05/10 00:38:30;;;;;;;4.70;2.03;;;12.70;99.90;;;;;;5076439;28;20577;-78
2023/05/10 00:40:58;;;;;;;4.33;1.93;;;12.70;99.90;;;;;;5077316;28;20310;-81
2023/05/10 00:43:27;;;;;;;3.03;2.00;;;12.70;99.90;;;;;;5077101;28;20665;-82
2023/05/10 00:45:55;;;;;;;3.77;2.23;;;12.70;99.90;;;;;;5077167;28;20264;-77
2023/05/10 00:48:25;;;;;;;4.00;1.87;;;12.70;99.90;;;;;;5084450;28;20214;-77
2023/05/10 00:50:53;;;;;;;3.13;2.20;;;12.70;99.90;;;;;;5096931;28;20213;-80
2023/05/10 00:53:21;;;;;;;4.03;2.00;;;12.70;99.90;;;;;;5096672;28;20210;-82
2023/05/10 00:55:50;;;;;;;3.03;2.10;;;12.70;99.90;;;;;;5095240;28;20225;-78
2023/05/10 00:58:19;;;;;;;2.30;2.10;;;12.60;99.90;;;;;;5097106;28;20209;-81
2023/05/10 01:00:48;;;;;;;3.73;2.07;;;12.60;99.90;;;;;;5097315;28;20210;-78
2023/05/10 01:03:16;;;;;;;2.60;2.17;;;12.60;99.90;;;;;;5096428;28;20218;-81
2023/05/10 01:05:46;;;;;;;3.47;2.20;;;12.60;99.90;;;;;;5095096;28;20257;-82
2023/05/10 01:08:15;;;;;;;3.17;2.10;;;12.60;99.90;;;;;;5096651;28;20206;-81
2023/05/10 01:10:44;;;;;;;6.67;2.20;;;12.60;99.90;;;;;;5107914;28;20231;-82
2023/05/10 01:13:13;;;;;;;4.63;2.03;;;12.60;99.90;;;;;;5102845;28;20215;-81
2023/05/10 01:15:42;;;;;;;4.00;2.10;;;12.70;99.90;;;;;;5096190;28;20262;-77
2023/05/10 01:18:10;;;;;;;2.43;2.10;;;12.60;99.90;;;;;;5097270;28;20727;-78
2023/05/10 01:20:44;;;;;;;3.83;1.90;;;12.70;99.90;;;;;;5096610;28;20203;-81
2023/05/10 01:23:31;;;;;;;2.27;2.00;;;12.60;99.90;;;;;;5095353;28;20217;-79
2023/05/10 01:26:34;;;;;;;3.10;1.90;;;12.60;99.90;;;;;;5096204;28;20211;-80
2023/05/10 01:29:40;;;;;;;2.50;1.90;;;12.60;99.90;;;;;;5093237;28;20210;-81
2023/05/10 01:32:31;;;;;;;5.40;1.90;;;12.60;99.90;;;;;;5094947;28;20199;-83
2023/05/10 01:35:04;;;;;;;3.67;1.93;;;12.60;99.90;;;;;;5096344;28;20218;-80
2023/05/10 01:37:41;;;;;;;1.97;1.80;;;12.60;99.90;;;;;;5096038;28;20202;-78
2023/05/10 01:40:19;;;;;;;2.47;1.73;;;12.60;99.90;;;;;;5094620;28;20274;-79
2023/05/10 01:42:52;;;;;;;2.50;1.70;;;12.60;99.90;;;;;;5095262;28;20287;-80
2023/05/10 01:45:26;;;;;;;2.40;1.90;;;12.60;99.90;;;;;;5095418;28;20206;-79
2023/05/10 01:48:05;;;;;;;2.57;1.70;;;12.60;99.90;;;;;;5094475;28;20570;-78
2023/05/10 01:50:35;;;;;;;2.03;1.63;;;12.60;99.90;;;;;;5096009;28;20207;-77
2023/05/10 01:53:04;;;;;;;1.73;1.63;;;12.60;99.90;;;;;;5095383;28;20199;-79
2023/05/10 01:55:36;;;;;;;3.30;1.60;;;12.50;99.90;;;;;;5095510;28;20222;-80
2023/05/10 01:58:07;;;;;;;2.27;1.60;;;12.50;99.90;;;;;;5080016;28;20546;-80
2023/05/10 02:00:36;;;;;;;2.67;1.80;;;12.50;99.90;;;;;;5075730;28;20211;-78
2023/05/10 02:03:09;;;;;;;1.93;1.70;;;12.50;99.90;;;;;;5075014;28;20306;-80
2023/05/10 02:05:38;;;;;;;2.43;1.50;;;12.50;99.90;;;;;;5075056;28;20265;-79
2023/05/10 02:08:08;;;;;;;3.47;1.60;;;12.50;99.90;;;;;;5074497;28;20695;-78
2023/05/10 02:10:37;;;;;;;2.00;1.80;;;12.50;99.90;;;;;;5082280;28;20209;-81
2023/05/10 02:13:06;;;;;;;2.53;1.53;;;12.50;99.90;;;;;;5094664;28;20202;-80
2023/05/10 02:15:35;;;;;;;1.50;1.40;;;12.50;99.90;;;;;;5076673;28;20399;-78
2023/05/10 02:18:05;;;;;;;1.50;1.40;;;12.50;99.90;;;;;;5075409;28;20262;-78
2023/05/10 02:20:37;;;;;;;1.40;1.30;;;12.50;99.90;;;;;;5074676;28;20215;-78
2023/05/10 02:23:06;;;;;;;1.47;1.23;;;12.50;99.90;;;;;;5074600;28;20631;-77
2023/05/10 02:25:35;;;;;;;2.03;1.13;;;12.50;99.90;;;;;;5074656;28;20203;-80
2023/05/10 02:28:05;;;;;;;15.00;1.13;;;12.50;99.90;;;;;;5074908;28;20214;-78
2023/05/10 02:30:35;;;;;;;1.00;1.00;;;12.40;99.90;;;;;;5074658;28;20207;-80
2023/05/10 02:33:06;;;;;;;2.77;1.63;;;12.40;99.90;;;;;;5074717;28;20267;-78
2023/05/10 02:35:36;;;;;;;0.97;0.97;;;12.40;99.90;;;;;;5074082;28;20223;-76
2023/05/10 02:38:07;;;;;;;2.60;1.00;;;12.40;99.90;;;;;;5074575;28;20211;-79
2023/05/10 02:40:37;;;;;;;1.50;1.10;;;12.30;99.90;;;;;;5094281;28;20684;-77
2023/05/10 02:43:07;;;;;;;1.17;1.07;;;12.30;99.90;;;;;;5094326;28;20229;-78
2023/05/10 02:45:38;;;;;;;1.87;1.00;;;12.30;99.90;;;;;;5094386;28;20230;-77
2023/05/10 02:48:07;;;;;;;1.70;1.07;;;12.30;99.90;;;;;;5093098;28;20201;-81
2023/05/10 02:50:38;;;;;;;1.20;1.10;;;12.30;99.90;;;;;;5093658;28;20713;-79
2023/05/10 02:53:12;;;;;;;1.40;1.30;;;12.30;99.90;;;;;;5094166;28;20207;-79
2023/05/10 02:55:43;;;;;;;1.13;1.03;;;12.30;99.90;;;;;;5093463;28;20210;-80
2023/05/10 02:58:12;;;;;;;0.90;0.90;;;12.40;99.90;;;;;;5093115;28;20230;-79
2023/05/10 03:00:40;;;;;;;1.27;0.90;;;12.30;99.90;;;;;;5094468;28;20548;-79
2023/05/10 03:03:08;;;;;;;0.80;0.70;;;12.30;99.90;;;;;;5093389;28;20219;-81
2023/05/10 03:05:38;;;;;;;2.13;1.03;;;12.30;99.90;;;;;;5092593;28;20724;-79
2023/05/10 03:08:06;;;;;;;3.73;1.20;;;12.30;99.90;;;;;;5093711;28;20215;-74
2023/05/10 03:10:39;;;;;;;1.10;1.00;;;12.30;99.90;;;;;;5093132;28;20279;-76
2023/05/10 03:13:13;;;;;;;0.83;0.80;;;12.30;99.90;;;;;;5092479;28;20191;-76
2023/05/10 03:15:53;;;;;;;3.00;0.93;;;12.30;99.90;;;;;;5093639;28;20407;-79
2023/05/10 03:18:24;;;;;;;1.20;0.90;;;12.30;99.90;;;;;;5093200;28;20209;-78
2023/05/10 03:20:58;;;;;;;2.73;1.10;;;12.30;99.90;;;;;;5093528;28;20568;-77
2023/05/10 03:23:30;;;;;;;1.00;1.00;;;12.30;99.90;;;;;;5072565;28;20228;-75
2023/05/10 03:26:00;;;;;;;1.00;1.00;;;12.30;99.90;;;;;;5072848;28;20222;-78
2023/05/10 03:28:28;;;;;;;0.97;0.93;;;12.30;99.90;;;;;;5073178;28;20218;-75
2023/05/10 03:30:57;;;;;;;2.53;1.00;;;12.20;99.90;;;;;;5072512;28;20244;-75
2023/05/10 03:33:25;;;;;;;1.00;1.00;;;12.20;99.90;;;;;;5076055;28;20281;-74
2023/05/10 03:35:55;;;;;;;1.20;1.10;;;12.20;99.90;;;;;;5093771;28;20210;-77
2023/05/10 03:38:23;;;;;;;1.40;1.13;;;12.20;99.90;;;;;;5093254;28;20266;-77
2023/05/10 03:40:51;;;;;;;1.37;1.10;;;12.20;99.90;;;;;;5091892;28;20229;-76
2023/05/10 03:43:19;;;;;;;1.37;1.10;;;12.20;99.90;;;;;;5092560;28;20326;-74
2023/05/10 03:45:47;;;;;;;0.90;0.90;;;12.20;99.90;;;;;;5092206;28;20199;-76
2023/05/10 03:48:15;;;;;;;2.53;1.20;;;12.20;99.90;;;;;;5093160;28;20211;-76
2023/05/10 03:50:43;;;;;;;1.20;1.20;;;12.20;99.90;;;;;;5094686;28;20211;-76
2023/05/10 03:53:13;;;;;;;1.03;0.93;;;12.20;99.90;;;;;;5092364;28;20565;-78
2023/05/10 03:55:41;;;;;;;1.17;0.97;;;12.20;99.90;;;;;;5093083;28;20368;-76
2023/05/10 03:58:12;;;;;;;1.37;0.90;;;12.20;99.90;;;;;;5092221;28;20199;-77
2023/05/10 04:00:43;;;;;;;1.27;1.17;;;12.20;99.90;;;;;;5093062;28;20238;-77
2023/05/10 04:03:11;;;;;;;2.03;1.23;;;12.20;99.90;;;;;;5092642;28;20279;-74
2023/05/10 04:05:39;;;;;;;1.00;1.00;;;12.20;99.90;;;;;;5091517;28;20255;-74
2023/05/10 04:08:07;;;;;;;1.30;1.17;;;12.20;99.90;;;;;;5092015;28;20211;-76
2023/05/10 04:10:37;;;;;;;1.17;1.10;;;12.20;99.90;;;;;;5092314;28;20221;-76
2023/05/10 04:13:05;;;;;;;2.53;1.07;;;12.20;99.90;;;;;;5088621;28;20199;-77
2023/05/10 04:15:33;;;;;;;2.10;1.20;;;12.20;99.90;;;;;;5072250;28;20569;-81
2023/05/10 04:18:01;;;;;;;1.20;1.20;;;12.20;99.90;;;;;;5079058;28;20576;-78
2023/05/10 04:20:30;;;;;;;2.13;1.30;;;12.20;99.90;;;;;;5086744;28;20207;-77
2023/05/10 04:22:58;;;;;;;2.43;1.30;;;12.20;99.90;;;;;;5090328;28;20645;-76
2023/05/10 04:25:26;;;;;;;1.20;1.20;;;12.20;99.90;;;;;;5091833;28;20195;-75
2023/05/10 04:27:56;;;;;;;1.40;1.30;;;12.30;99.90;;;;;;5088047;28;20203;-77
2023/05/10 04:30:24;;;;;;;1.40;1.30;;;12.20;99.90;;;;;;5091529;28;20207;-77
2023/05/10 04:32:52;;;;;;;4.40;1.30;;;12.30;99.90;;;;;;5081317;28;20206;-78
2023/05/10 04:35:21;;;;;;;1.50;1.40;;;12.30;99.90;;;;;;5091568;28;20203;-75
2023/05/10 04:37:49;;;;;;;2.03;1.20;;;12.30;99.90;;;;;;5092168;28;20199;-75
2023/05/10 04:40:17;;;;;;;1.53;1.27;;;12.30;99.90;;;;;;5092118;28;20662;-76
2023/05/10 04:42:45;;;;;;;1.50;1.30;;;12.30;99.90;;;;;;5090419;28;20199;-75
2023/05/10 04:45:15;;;;;;;2.40;1.30;;;12.30;99.90;;;;;;5091820;28;20206;-78
2023/05/10 04:47:43;;;;;;;1.37;1.13;;;12.30;99.90;;;;;;5091489;28;20199;-76
2023/05/10 04:50:11;;;;;;;1.40;1.30;;;12.30;99.90;;;;;;5091218;28;20211;-73
2023/05/10 04:52:40;;;;;;;1.17;1.07;;;12.40;99.90;;;;;;5091043;28;20273;-80
2023/05/10 04:55:09;;;;;;;1.20;1.07;;;12.40;99.90;;;;;;5097685;28;20347;-79
2023/05/10 04:57:38;;;;;;;1.67;1.30;;;12.40;99.90;;;;;;5088308;28;20609;-78
2023/05/10 05:00:08;;;;;;;1.60;1.30;;;12.40;99.90;;;;;;5091550;28;20278;-78
2023/05/10 05:02:37;;;;;;;1.30;1.20;;;12.40;99.90;;;;;;5092554;28;20241;-78
2023/05/10 05:05:07;;;;;;;1.03;1.00;;;12.40;99.90;;;;;;5093024;28;20223;-77
2023/05/10 05:07:35;;;;;;;1.23;1.10;;;12.50;99.90;;;;;;5092852;28;20649;-76
2023/05/10 05:10:03;;;;;;;1.80;1.30;;;12.50;99.90;;;;;;5091002;28;20564;-74
2023/05/10 05:12:31;;;;;;;1.47;1.37;;;12.50;99.90;;;;;;5092180;28;20211;-76
2023/05/10 05:14:59;;;;;;;1.10;1.10;;;12.50;99.90;;;;;;5089860;28;20225;-76
2023/05/10 05:17:27;;;;;;;2.33;1.20;;;12.60;99.90;;;;;;5094680;28;20294;-77
2023/05/10 05:19:57;;;;;;;3.10;1.03;;;12.70;99.90;;;;;;5103665;28;20252;-77
2023/05/10 05:22:27;;;;;;;1.80;1.00;;;12.60;99.90;;;;;;5107393;28;20222;-76
2023/05/10 05:24:56;;;;;;;0.77;0.70;;;12.60;99.90;;;;;;5098143;28;20314;-82
2023/05/10 05:27:26;;;;;;;0.83;0.80;;;12.70;99.90;;;;;;5094921;28;20260;-80
2023/05/10 05:29:54;;;;;;;1.80;0.60;;;12.70;99.90;;;;;;5096752;28;20248;-76
2023/05/10 05:32:23;;;;;;;0.70;0.70;;;12.70;99.90;;;;;;5096515;28;20310;-80
2023/05/10 05:34:51;;;;;;;1.43;0.57;;;12.70;99.90;;;;;;5095229;28;20286;-78
2023/05/10 05:37:22;;;;;;;0.60;0.60;;;12.80;99.90;;;;;;5092362;28;20199;-77
2023/05/10 05:39:50;;;;;;;2.60;0.80;;;12.70;99.90;;;;;;5094874;28;20222;-80
2023/05/10 05:42:18;;;;;;;1.53;0.47;;;12.80;99.90;;;;;;5092810;28;20210;-78
2023/05/10 05:44:47;;;;;;;0.50;0.50;;;12.80;99.90;;;;;;5094805;28;20293;-78
2023/05/10 05:47:15;;;;;;;0.53;0.53;;;12.90;99.90;;;;;;5094984;28;20227;-77
2023/05/10 05:49:45;;;;;;;0.67;0.67;;;12.90;99.90;;;;;;5095411;28;20203;-78
2023/05/10 05:52:13;;;;;;;1.43;0.53;;;12.90;99.90;;;;;;5094722;28;20256;-77
2023/05/10 05:54:43;;;;;;;0.70;0.40;;;12.90;99.90;;;;;;5095392;28;20199;-82
2023/05/10 05:57:11;;;;;;;0.50;0.50;;;12.90;99.90;;;;;;5093330;28;20210;-78
2023/05/10 05:59:43;;;;;;;1.23;0.40;;;12.90;99.90;;;;;;5095262;28;20255;-77
2023/05/10 06:02:12;;;;;;;2.20;0.40;;;12.90;99.90;;;;;;5094303;28;20615;-78
2023/05/10 06:04:40;;;;;;;0.90;0.40;;;13.00;99.90;;;;;;5093612;28;20253;-75
2023/05/10 06:07:11;;;;;;;0.30;0.30;;;13.10;99.90;;;;;;5092235;28;20242;-76
2023/05/10 06:09:39;;;;;;;0.53;0.50;;;13.10;99.90;;;;;;5094389;28;20677;-79
2023/05/10 06:12:09;;;;;;;0.40;0.40;;;13.10;99.90;;;;;;5095002;28;20298;-80
2023/05/10 06:14:37;;;;;;;0.50;0.50;;;13.20;99.90;;;;;;5095270;28;20215;-78
2023/05/10 06:17:06;;;;;;;2.30;0.40;;;13.20;99.90;;;;;;5094948;28;20221;-78
2023/05/10 06:19:34;;;;;;;0.40;0.40;;;13.30;99.90;;;;;;5094064;28;20627;-81
2023/05/10 06:22:02;;;;;;;0.63;0.60;;;13.20;99.90;;;;;;5095819;28;20666;-79
2023/05/10 06:24:31;;;;;;;0.60;0.60;;;13.00;99.90;;;;;;5092216;28;20234;-79
2023/05/10 06:27:00;;;;;;;0.50;0.50;;;13.10;99.90;;;;;;5090878;28;20206;-80
2023/05/10 06:29:29;;;;;;;0.70;0.70;;;13.10;99.90;;;;;;5095695;28;20294;-80
2023/05/10 06:31:58;;;;;;;2.30;1.70;;;13.10;99.90;;;;;;5096485;28;20199;-82
2023/05/10 06:34:26;;;;;;;1.63;1.40;;;13.10;99.90;;;;;;5093869;28;20207;-82
2023/05/10 06:36:54;;;;;;;2.70;1.10;;;13.10;99.90;;;;;;5095405;28;20253;-80
2023/05/10 06:39:23;;;;;;;1.73;1.00;;;13.00;99.90;;;;;;5096636;28;20202;-80
2023/05/10 06:41:51;;;;;;;1.13;0.90;;;13.10;99.90;;;;;;5093023;28;20206;-82
2023/05/10 06:44:19;;;;;;;1.20;1.10;;;13.10;99.90;;;;;;5093883;28;20763;-81
2023/05/10 06:46:55;;;;;;;1.37;1.10;;;13.10;99.90;;;;;;5097142;28;20258;-80
2023/05/10 06:49:23;;;;;;;2.47;1.00;;;13.20;99.90;;;;;;5098072;28;20215;-83
2023/05/10 06:51:52;;;;;;;1.13;0.80;;;13.20;99.90;;;;;;5092202;28;20213;-84
2023/05/10 06:54:20;;;;;;;3.23;1.10;;;13.30;99.90;;;;;;5095738;28;20211;-81
2023/05/10 06:56:48;;;;;;;1.80;1.07;;;13.30;99.90;;;;;;5100082;28;20210;-83
2023/05/10 06:59:16;;;;;;;2.30;1.03;;;13.40;99.90;;;;;;5115879;28;20199;-79
2023/05/10 07:01:45;;;;;;;1.00;1.00;;;13.40;99.90;;;;;;5095431;28;20204;-80
2023/05/10 07:04:14;;;;;;;1.20;0.87;;;13.50;99.90;;;;;;5085570;28;20227;-79
2023/05/10 07:06:43;;;;;;;1.27;1.17;;;13.70;99.90;;;;;;5095389;28;20675;-80
2023/05/10 07:09:11;;;;;;;2.37;1.00;;;13.80;99.90;;;;;;5085878;28;20667;-81
2023/05/10 07:11:39;;;;;;;1.50;1.10;;;14.00;99.90;;;;;;5075570;28;20250;-83
2023/05/10 07:14:07;;;;;;;1.60;0.97;;;14.30;99.90;;;;;;5076084;28;20212;-82
2023/05/10 07:16:36;;;;;;;1.43;1.03;;;14.50;99.90;;;;;;5077726;28;20214;-79
2023/05/10 07:19:05;;;;;;;3.10;0.97;;;14.90;99.90;;;;;;5096368;28;20277;-81
2023/05/10 07:21:35;;;;;;;5.03;1.23;;;15.10;99.90;;;;;;5096762;28;20217;-82
2023/05/10 07:24:03;;;;;;;2.17;1.03;;;15.20;99.90;;;;;;5112607;28;20225;-79
2023/05/10 07:26:31;;;;;;;1.90;0.80;;;15.20;99.90;;;;;;5107817;28;20284;-80
2023/05/10 07:29:00;;;;;;;0.90;0.87;;;15.40;99.90;;;;;;5096479;28;20206;-83
2023/05/10 07:31:28;;;;;;;1.77;1.10;;;15.50;99.90;;;;;;5115102;28;20221;-81
2023/05/10 07:33:56;;;;;;;0.90;0.90;;;15.30;99.90;;;;;;5114555;28;20213;-78
2023/05/10 07:36:24;;;;;;;1.20;1.10;;;15.20;99.90;;;;;;5109670;28;20670;-79
2023/05/10 07:38:54;;;;;;;1.67;1.10;;;15.10;99.90;;;;;;5094342;28;20203;-78
2023/05/10 07:41:22;;;;;;;1.57;1.17;;;15.00;99.90;;;;;;5094136;28;20217;-79
2023/05/10 07:43:50;;;;;;;2.03;1.20;;;14.90;99.90;;;;;;5089108;28;20732;-78
2023/05/10 07:46:19;;;;;;;1.17;1.10;;;15.00;99.90;;;;;;5073513;28;20234;-80
2023/05/10 07:48:47;;;;;;;3.43;1.60;;;14.80;99.90;;;;;;5072870;28;20287;-78
2023/05/10 07:51:15;;;;;;;1.97;1.27;;;14.70;99.90;;;;;;5073478;28;20242;-78
2023/05/10 07:53:43;;;;;;;3.10;1.70;;;14.40;99.90;;;;;;5072940;28;20235;-79
2023/05/10 07:56:24;;;;;;;1.40;1.30;;;14.30;99.90;;;;;;5073056;28;20203;-79
2023/05/10 07:58:53;;;;;;;1.60;1.40;;;14.30;99.90;;;;;;5072560;28;20191;-77
2023/05/10 08:01:21;;;;;;;1.43;1.33;;;14.40;99.90;;;;;;5079322;28;20315;-77
2023/05/10 08:03:50;;;;;;;2.67;1.30;;;14.40;99.90;;;;;;5094457;28;20234;-77
2023/05/10 08:06:19;;;;;;;2.10;1.30;;;14.30;99.90;;;;;;5094003;28;20263;-75
2023/05/10 08:08:50;;;;;;;1.67;1.40;;;14.30;99.90;;;;;;5093120;28;20668;-79
2023/05/10 08:11:18;;;;;;;2.33;1.23;;;14.50;99.90;;;;;;5085911;28;20251;-78
2023/05/10 08:13:49;;;;;;;1.40;1.30;;;14.50;99.90;;;;;;5073985;28;20271;-81
2023/05/10 08:16:18;;;;;;;1.60;1.40;;;14.90;99.90;;;;;;5073945;28;20760;-80
2023/05/10 08:18:48;;;;;;;1.70;1.07;;;15.30;99.90;;;;;;5072819;28;20632;-80
2023/05/10 08:21:17;;;;;;;2.57;1.30;;;15.80;99.90;;;;;;5072785;28;20215;-80
2023/05/10 08:23:45;;;;;;;4.27;1.00;;;16.10;99.90;;;;;;5084088;28;20210;-79
2023/05/10 08:26:13;;;;;;;1.80;1.00;;;16.40;99.90;;;;;;5092317;28;20558;-80
2023/05/10 08:28:41;;;;;;;1.27;1.17;;;16.50;99.90;;;;;;5091246;28;20443;-77
2023/05/10 08:31:11;;;;;;;1.20;1.10;;;16.60;99.90;;;;;;5092256;28;20626;-79
2023/05/10 08:33:39;;;;;;;1.40;1.30;;;16.40;99.90;;;;;;5092099;28;20294;-78
2023/05/10 08:36:10;;;;;;;1.80;1.30;;;16.30;99.90;;;;;;5092802;28;20193;-76
2023/05/10 08:38:38;;;;;;;1.20;1.10;;;16.20;99.90;;;;;;5091708;28;20211;-77
2023/05/10 08:41:07;;;;;;;2.50;1.27;;;16.30;99.90;;;;;;5092100;28;20206;-75
2023/05/10 08:43:37;;;;;;;1.67;1.07;;;16.30;99.90;;;;;;5091728;28;20199;-75
2023/05/10 08:46:07;;;;;;;1.37;1.20;;;16.40;99.90;;;;;;5091843;28;20227;-76
2023/05/10 08:48:37;;;;;;;1.97;1.13;;;16.60;99.90;;;;;;5090014;28;20278;-75
2023/05/10 08:51:08;;;;;;;2.40;1.00;;;17.30;99.90;;;;;;5092147;28;20225;-77
2023/05/10 08:53:37;;;;;;;1.87;1.20;;;17.50;99.90;;;;;;5095191;28;20194;-77
2023/05/10 08:56:06;;;;;;;2.43;1.30;;;17.90;99.90;;;;;;5098792;28;20205;-75
2023/05/10 08:58:34;;;;;;;1.30;0.80;;;18.10;99.90;;;;;;5094791;28;20199;-75
2023/05/10 09:01:03;;;;;;;2.00;1.03;;;18.70;99.90;;;;;;5096548;28;20234;-76
2023/05/10 09:03:32;;;;;;;1.07;1.00;;;18.60;99.90;;;;;;5095778;28;20770;-75
2023/05/10 09:06:01;;;;;;;2.00;1.30;;;18.10;99.90;;;;;;5093247;28;20239;-76
2023/05/10 09:08:30;;;;;;;1.33;1.13;;;17.50;99.90;;;;;;5104420;28;20657;-75
2023/05/10 09:11:01;;;;;;;2.57;1.10;;;17.30;99.90;;;;;;5099624;28;20214;-78
2023/05/10 09:13:30;;;;;;;1.40;1.03;;;17.00;99.90;;;;;;5098782;28;20205;-77
2023/05/10 09:15:59;;;;;;;1.00;1.00;;;16.40;99.90;;;;;;5100223;28;20309;-76
2023/05/10 09:18:40;;;;;;;2.43;0.90;;;15.90;99.90;;;;;;5100429;28;20198;-75
2023/05/10 09:21:10;;;;;;;1.70;0.80;;;16.00;99.90;;;;;;5096541;28;20253;-76
2023/05/10 09:23:38;;;;;;;1.93;0.73;;;16.00;99.90;;;;;;5093643;28;20204;-77
2023/05/10 09:26:07;;;;;;;1.63;0.80;;;16.60;99.90;;;;;;5108407;28;20258;-77
2023/05/10 09:28:50;;;;;;;2.80;0.90;;;16.90;99.90;;;;;;5098785;28;20199;-77
2023/05/10 09:31:19;;;;;;;3.50;0.83;;;16.40;99.90;;;;;;5111435;28;20652;-73
2023/05/10 09:33:47;;;;;;;0.73;0.70;;;16.10;99.90;;;;;;5112305;28;20210;-75
2023/05/10 09:36:17;;;;;;;0.80;0.80;;;16.00;99.90;;;;;;5094209;28;20215;-76
2023/05/10 09:38:49;;;;;;;1.03;0.90;;;15.40;99.90;;;;;;5095730;28;20209;-74
2023/05/10 09:41:18;;;;;;;1.33;1.10;;;15.30;99.90;;;;;;5093777;28;20238;-75
2023/05/10 09:43:47;;;;;;;3.60;1.20;;;15.30;99.90;;;;;;5094262;28;20593;-75
2023/05/10 09:46:15;;;;;;;1.10;1.10;;;15.10;99.90;;;;;;5095268;28;20215;-76
2023/05/10 09:48:46;;;;;;;1.33;0.90;;;15.10;99.90;;;;;;5095058;28;20199;-76
2023/05/10 09:51:21;;;;;;;1.13;1.03;;;15.10;99.90;;;;;;5091520;28;20207;-74
2023/05/10 09:54:10;;;;;;;1.47;1.10;;;15.10;99.90;;;;;;5094925;28;20652;-75
2023/05/10 09:56:40;;;;;;;0.80;0.80;;;15.10;99.90;;;;;;5090285;28;20203;-73
2023/05/10 09:59:10;;;;;;;1.30;1.20;;;15.20;99.90;;;;;;5093875;28;20198;-75
2023/05/10 10:01:38;;;;;;;1.43;1.30;;;15.20;99.90;;;;;;5094795;28;20222;-75
2023/05/10 10:04:10;;;;;;;2.30;1.30;;;15.20;99.90;;;;;;5094524;28;20234;-77
2023/05/10 10:06:40;;;;;;;2.30;1.23;;;15.30;99.90;;;;;;5092593;28;20218;-76
2023/05/10 10:09:10;;;;;;;1.47;1.37;;;15.30;99.90;;;;;;5091579;28;20203;-76
2023/05/10 10:11:41;;;;;;;1.67;1.30;;;15.50;99.90;;;;;;5095049;28;20207;-75
2023/05/10 10:14:09;;;;;;;5.50;1.23;;;15.70;99.90;;;;;;5095567;28;20229;-76
2023/05/10 10:16:38;;;;;;;3.33;1.17;;;16.50;99.90;;;;;;5093579;28;20649;-77
2023/05/10 10:19:23;;;;;;;1.77;1.20;;;17.10;99.90;;;;;;5089210;28;20199;-74
2023/05/10 10:21:52;;;;;;;1.37;1.27;;;17.20;99.90;;;;;;5094465;28;20644;-74
2023/05/10 10:24:20;;;;;;;2.07;1.00;;;17.20;99.90;;;;;;5094207;28;20601;-75
2023/05/10 10:26:53;;;;;;;4.90;1.33;;;17.20;99.90;;;;;;5093410;28;20219;-80
2023/05/10 10:29:26;;;;;;;1.20;1.10;;;17.10;99.90;;;;;;5095261;28;20202;-77
2023/05/10 10:32:06;;;;;;;3.27;1.20;;;16.90;99.90;;;;;;5094576;28;20262;-80
2023/05/10 10:34:35;;;;;;;1.63;1.10;;;16.50;99.90;;;;;;5093560;28;20241;-78
2023/05/10 10:37:07;;;;;;;1.10;1.10;;;15.90;99.90;;;;;;5090798;28;20297;-77
2023/05/10 10:39:36;;;;;;;1.07;0.60;;;15.80;99.90;;;;;;5094301;28;20693;-76
2023/05/10 10:42:06;;;;;;;1.90;1.00;;;15.80;99.90;;;;;;5091648;28;20237;-76
2023/05/10 10:44:39;;;;;;;1.77;1.33;;;15.60;99.90;;;;;;5094587;28;20207;-75
2023/05/10 10:47:32;;;;;;;2.47;1.40;;;15.80;99.90;;;;;;5090766;28;20580;-76
2023/05/10 10:50:06;;;;;;;1.77;1.47;;;16.40;99.90;;;;;;5093863;28;20234;-77
2023/05/10 10:52:36;;;;;;;2.37;1.30;;;17.20;99.90;;;;;;5093613;28;20569;-77
2023/05/10 10:55:08;;;;;;;2.37;1.40;;;16.90;99.90;;;;;;5091419;28;20286;-76
2023/05/10 10:57:45;;;;;;;2.53;1.17;;;16.90;99.90;;;;;;5094367;28;20227;-78
2023/05/10 11:00:27;;;;;;;2.37;1.27;;;17.10;99.90;;;;;;5094626;28;20578;-76
2023/05/10 11:02:59;;;;;;;2.23;1.13;;;16.90;99.90;;;;;;5091985;28;20275;-76
2023/05/10 11:05:45;;;;;;;2.00;1.50;;;16.40;99.90;;;;;;5091896;28;20195;-75
2023/05/10 11:08:21;;;;;;;1.67;1.57;;;16.20;99.90;;;;;;5093675;28;20226;-75
2023/05/10 11:11:06;;;;;;;2.33;1.73;;;16.30;99.90;;;;;;5093834;28;20616;-78
2023/05/10 11:13:38;;;;;;;2.70;1.60;;;16.70;99.90;;;;;;5093036;28;20202;-75
2023/05/10 11:16:20;;;;;;;2.40;1.73;;;16.90;99.90;;;;;;5094268;28;20342;-75
2023/05/10 11:19:10;;;;;;;4.10;1.70;;;17.20;99.90;;;;;;5094084;28;20286;-78
2023/05/10 11:21:46;;;;;;;1.90;1.30;;;17.30;99.90;;;;;;5090035;28;20206;-79
2023/05/10 11:24:17;;;;;;;1.30;1.13;;;17.40;99.90;;;;;;5091639;28;20202;-79
2023/05/10 11:26:46;;;;;;;2.03;1.00;;;17.80;99.90;;;;;;5092969;28;20222;-78
2023/05/10 11:29:14;;;;;;;2.17;1.20;;;18.30;99.90;;;;;;5092705;28;20218;-78
2023/05/10 11:31:47;;;;;;;2.37;1.23;;;18.10;99.90;;;;;;5093500;28;20198;-78
2023/05/10 11:34:24;;;;;;;1.73;1.30;;;18.10;99.90;;;;;;5091805;28;20225;-77
2023/05/10 11:36:54;;;;;;;1.67;1.23;;;18.00;99.90;;;;;;5090791;28;20202;-77
2023/05/10 11:39:27;;;;;;;1.53;1.40;;;18.10;99.90;;;;;;5091754;28;20225;-76
2023/05/10 11:41:55;;;;;;;1.80;1.30;;;18.30;99.90;;;;;;5083194;28;20294;-77
2023/05/10 11:44:24;;;;;;;5.10;1.40;;;18.70;99.90;;;;;;5072539;28;20218;-77
2023/05/10 11:46:53;;;;;;;3.10;1.53;;;18.60;99.90;;;;;;5081697;28;20339;-77
2023/05/10 11:49:25;;;;;;;1.30;1.20;;;18.70;99.90;;;;;;5094033;28;20207;-76
2023/05/10 11:51:53;;;;;;;2.03;1.30;;;18.50;99.90;;;;;;5093720;28;20238;-78
2023/05/10 11:54:21;;;;;;;2.23;1.20;;;18.00;99.90;;;;;;5094704;28;20257;-77
2023/05/10 11:56:52;;;;;;;2.40;1.20;;;18.30;99.90;;;;;;5092233;28;20217;-78
2023/05/10 11:59:20;;;;;;;2.20;1.30;;;18.40;99.90;;;;;;5093803;28;20211;-77
2023/05/10 12:01:49;;;;;;;1.87;1.03;;;18.20;99.90;;;;;;5093390;28;20249;-76
2023/05/10 12:04:18;;;;;;;1.90;1.40;;;18.20;99.90;;;;;;5092394;28;20202;-76
2023/05/10 12:06:47;;;;;;;2.90;1.60;;;18.20;99.90;;;;;;5091681;28;20653;-78
2023/05/10 12:09:15;;;;;;;2.00;1.10;;;18.00;99.90;;;;;;5072989;28;20218;-76
2023/05/10 12:11:56;;;;;;;1.47;1.30;;;18.00;99.90;;;;;;5073058;28;20636;-78
2023/05/10 12:14:24;;;;;;;2.93;1.40;;;17.50;99.90;;;;;;5072581;28;20679;-77
2023/05/10 12:16:53;;;;;;;1.90;1.40;;;17.50;99.90;;;;;;5078898;28;20206;-77
2023/05/10 12:19:21;;;;;;;2.00;1.13;;;17.20;99.90;;;;;;5093060;28;20238;-77
2023/05/10 12:21:49;;;;;;;1.33;0.73;;;17.30;99.90;;;;;;5092509;28;20211;-77
2023/05/10 12:24:17;;;;;;;1.53;1.10;;;17.10;99.90;;;;;;5092446;28;20496;-75
2023/05/10 12:26:48;;;;;;;2.87;0.90;;;17.30;99.90;;;;;;5092498;28;20215;-74
2023/05/10 12:29:18;;;;;;;0.77;0.70;;;17.10;99.90;;;;;;5093810;28;20569;-76
2023/05/10 12:31:51;;;;;;;2.10;0.80;;;16.90;99.90;;;;;;5095362;28;20234;-75
2023/05/10 12:34:27;;;;;;;2.53;0.70;;;16.80;99.90;;;;;;5082285;28;20490;-76
2023/05/10 12:36:56;;;;;;;3.23;0.90;;;16.70;99.90;;;;;;5073172;28;20211;-75
2023/05/10 12:39:25;;;;;;;3.27;0.80;;;16.40;99.90;;;;;;5072732;28;20211;-79
2023/05/10 12:41:53;;;;;;;2.03;1.00;;;16.40;99.90;;;;;;5077031;28;20203;-75
2023/05/10 12:44:22;;;;;;;2.73;1.00;;;16.40;99.90;;;;;;5092387;28;20256;-75
2023/05/10 12:46:50;;;;;;;2.17;1.10;;;16.60;99.90;;;;;;5092876;28;20580;-75
2023/05/10 12:49:19;;;;;;;1.83;0.90;;;16.60;99.90;;;;;;5090997;28;20233;-75
2023/05/10 12:51:47;;;;;;;1.60;1.00;;;16.50;99.90;;;;;;5092553;28;20252;-75
2023/05/10 12:54:15;;;;;;;2.07;1.00;;;16.40;99.90;;;;;;5092971;28;20211;-75
2023/05/10 12:56:44;;;;;;;1.63;1.20;;;16.80;99.90;;;;;;5073225;28;20231;-78
2023/05/10 12:59:12;;;;;;;2.87;1.20;;;16.80;99.90;;;;;;5072401;28;20203;-75
2023/05/10 13:01:41;;;;;;;2.60;1.20;;;16.50;99.90;;;;;;5072596;28;20533;-75
2023/05/10 13:04:10;;;;;;;1.40;1.10;;;16.20;99.90;;;;;;5072599;28;20215;-75